Time;durP1;ratioP1;P1;durP2;ratioP2;P2;SDS_P1;SDS_P2;PMS_P1;PMS_P2;Temp;Humidity;BMP_temperature;BMP_pressure;BME280_temperature;BME280_humidity;BME280_pressure;Samples;Min_cycle;Max_cycle;Signal;HPM_P1;HPM_P2
2023/07/10 00:01:13;;;;;;;12.25;5.25;;;25.20;99.90;;;;;;5012839;28;20018;-49
2023/07/10 00:03:40;;;;;;;7.68;4.43;;;25.20;99.90;;;;;;5012634;28;20026;-48
2023/07/10 00:06:09;;;;;;;7.47;4.55;;;25.20;99.90;;;;;;5012749;28;20029;-47
2023/07/10 00:08:35;;;;;;;6.82;4.60;;;25.10;99.90;;;;;;5016874;28;20383;-57
2023/07/10 00:11:01;;;;;;;6.97;4.45;;;25.10;99.90;;;;;;5026156;28;20029;-52
2023/07/10 00:15:54;;;;;;;8.48;4.57;;;25.00;99.90;;;;;;5049897;22;20136;-50
2023/07/10 00:18:21;;;;;;;7.45;5.07;;;25.00;99.90;;;;;;5032302;28;20026;-52
2023/07/10 00:20:47;;;;;;;11.02;4.63;;;25.00;99.90;;;;;;5032141;28;20404;-53
2023/07/10 00:23:17;;;;;;;6.40;4.55;;;24.80;99.90;;;;;;5032030;28;20532;-52
2023/07/10 00:25:43;;;;;;;11.77;5.22;;;24.90;99.90;;;;;;5031473;28;20025;-55
2023/07/10 00:28:18;;;;;;;5.50;4.25;;;24.90;99.90;;;;;;5031677;28;20469;-50
2023/07/10 00:30:45;;;;;;;8.23;4.60;;;24.90;99.90;;;;;;5031816;28;20049;-55
2023/07/10 00:33:13;;;;;;;7.15;4.55;;;24.90;99.90;;;;;;5031846;28;20033;-54
2023/07/10 00:35:39;;;;;;;14.05;4.95;;;24.90;99.90;;;;;;5031332;28;20125;-51
2023/07/10 00:38:15;;;;;;;9.82;5.03;;;24.80;99.90;;;;;;5029158;28;20394;-49
2023/07/10 00:40:40;;;;;;;12.70;5.57;;;24.80;99.90;;;;;;5030413;28;20551;-52
2023/07/10 00:43:21;;;;;;;9.45;5.00;;;24.70;99.90;;;;;;5030316;28;20026;-50
2023/07/10 00:45:48;;;;;;;7.47;4.70;;;24.60;99.90;;;;;;5031195;28;20030;-52
2023/07/10 00:48:32;;;;;;;7.82;5.05;;;24.60;99.90;;;;;;5031481;28;20033;-50
2023/07/10 00:51:00;;;;;;;11.45;4.97;;;24.60;99.90;;;;;;5031549;28;20481;-56
2023/07/10 00:53:29;;;;;;;10.52;4.60;;;24.50;99.90;;;;;;5030137;28;20025;-54
2023/07/10 00:55:57;;;;;;;10.55;4.70;;;24.40;99.90;;;;;;5030796;28;20030;-52
2023/07/10 00:58:37;;;;;;;9.13;5.00;;;24.30;99.90;;;;;;5031492;28;20053;-52
2023/07/10 01:01:10;;;;;;;7.72;5.13;;;24.20;99.90;;;;;;5031553;28;20512;-51
2023/07/10 01:03:39;;;;;;;13.13;5.45;;;24.20;99.90;;;;;;5030590;28;20045;-55
2023/07/10 01:06:13;;;;;;;6.53;4.65;;;24.20;99.90;;;;;;5030727;28;20026;-55
2023/07/10 01:08:41;;;;;;;15.27;4.67;;;24.20;99.90;;;;;;5031493;28;20029;-54
2023/07/10 01:11:06;;;;;;;7.38;4.65;;;24.20;99.90;;;;;;5031306;28;20121;-51
2023/07/10 01:13:34;;;;;;;8.63;4.90;;;24.30;99.90;;;;;;5029697;28;20049;-53
2023/07/10 01:15:59;;;;;;;7.57;4.60;;;24.20;99.90;;;;;;5030677;28;20060;-51
2023/07/10 01:18:25;;;;;;;9.18;4.63;;;24.20;99.90;;;;;;5030062;28;20080;-51
2023/07/10 01:21:18;;;;;;;9.55;4.55;;;24.10;99.90;;;;;;5031457;28;20493;-54
2023/07/10 01:23:43;;;;;;;7.07;4.20;;;24.10;99.90;;;;;;5030990;28;20033;-54
2023/07/10 01:26:09;;;;;;;13.65;4.82;;;24.20;99.90;;;;;;5030799;28;20084;-53
2023/07/10 01:28:35;;;;;;;8.65;4.45;;;24.10;99.90;;;;;;5031283;28;20036;-51
2023/07/10 01:31:05;;;;;;;7.82;4.45;;;24.00;99.90;;;;;;5031270;28;20022;-55
2023/07/10 01:33:46;;;;;;;9.85;4.75;;;24.00;99.90;;;;;;5031054;28;20029;-51
2023/07/10 01:36:16;;;;;;;12.02;4.53;;;23.90;99.90;;;;;;5030405;28;20065;-54
2023/07/10 01:38:48;;;;;;;6.68;5.00;;;23.80;99.90;;;;;;5030206;28;20397;-51
2023/07/10 01:41:39;;;;;;;6.55;4.55;;;23.80;99.90;;;;;;5029754;28;20021;-54
2023/07/10 01:44:29;;;;;;;6.10;4.13;;;23.70;99.90;;;;;;5030594;28;20021;-52
2023/07/10 01:46:56;;;;;;;9.00;5.47;;;23.70;99.90;;;;;;5030426;28;20037;-54
2023/07/10 01:49:38;;;;;;;6.50;4.40;;;23.70;99.90;;;;;;5030990;28;20053;-52
2023/07/10 01:52:07;;;;;;;9.63;5.68;;;23.70;99.90;;;;;;5031048;28;20103;-55
2023/07/10 01:54:43;;;;;;;9.32;5.47;;;23.70;99.90;;;;;;5030977;28;20028;-52
2023/07/10 01:57:10;;;;;;;7.63;4.55;;;23.70;99.90;;;;;;5030530;28;20443;-53
2023/07/10 01:59:36;;;;;;;7.85;3.95;;;23.70;99.90;;;;;;5031101;28;20022;-56
2023/07/10 02:02:01;;;;;;;13.40;5.90;;;23.80;99.90;;;;;;5030908;28;20088;-51
2023/07/10 02:04:27;;;;;;;6.30;4.55;;;23.70;99.90;;;;;;5030828;28;20455;-54
2023/07/10 02:06:56;;;;;;;9.05;4.78;;;23.80;99.90;;;;;;5030214;28;20071;-55
2023/07/10 02:09:27;;;;;;;7.00;5.15;;;23.70;99.90;;;;;;5030962;28;20053;-54
2023/07/10 02:11:53;;;;;;;9.32;4.57;;;23.60;99.90;;;;;;5030925;28;20028;-53
2023/07/10 02:14:18;;;;;;;12.40;5.20;;;23.70;99.90;;;;;;5032240;28;20040;-53
2023/07/10 02:16:44;;;;;;;14.85;5.68;;;23.50;99.90;;;;;;5034360;28;20100;-51
2023/07/10 02:19:10;;;;;;;16.10;5.95;;;23.50;99.90;;;;;;5039764;28;20033;-52
2023/07/10 02:21:36;;;;;;;9.98;5.32;;;23.40;99.90;;;;;;5034902;28;20080;-53
2023/07/10 02:24:02;;;;;;;13.52;5.57;;;23.40;99.90;;;;;;5034801;28;20025;-55
2023/07/10 02:26:29;;;;;;;11.65;5.30;;;23.40;99.90;;;;;;5032254;28;20025;-54
2023/07/10 02:28:55;;;;;;;11.13;5.38;;;23.20;99.90;;;;;;5034265;28;20029;-54
2023/07/10 02:31:21;;;;;;;9.98;6.32;;;23.20;99.90;;;;;;5033717;28;20493;-52
2023/07/10 02:33:47;;;;;;;9.93;5.20;;;22.90;99.90;;;;;;5034292;28;20115;-51
2023/07/10 02:36:12;;;;;;;13.57;5.38;;;22.70;99.90;;;;;;5033603;28;20412;-54
2023/07/10 02:38:38;;;;;;;12.18;5.35;;;22.60;99.90;;;;;;5032134;28;20044;-54
2023/07/10 02:41:04;;;;;;;6.93;5.10;;;22.50;99.90;;;;;;5034025;28;20061;-54
2023/07/10 02:43:29;;;;;;;10.00;5.97;;;22.40;99.90;;;;;;5034285;28;20025;-52
2023/07/10 02:45:55;;;;;;;10.95;5.60;;;22.40;99.90;;;;;;5033980;28;20030;-52
2023/07/10 02:48:20;;;;;;;9.57;5.25;;;22.40;99.90;;;;;;5033934;28;20432;-53
2023/07/10 02:50:46;;;;;;;10.38;5.30;;;22.30;99.90;;;;;;5033851;28;20397;-54
2023/07/10 02:53:11;;;;;;;7.22;5.25;;;22.40;99.90;;;;;;5033783;28;20029;-50
2023/07/10 02:55:37;;;;;;;11.98;4.70;;;22.30;99.90;;;;;;5033475;28;20028;-52
2023/07/10 02:58:05;;;;;;;6.22;4.53;;;22.10;99.90;;;;;;5033494;28;20035;-49
2023/07/10 03:00:30;;;;;;;12.00;4.85;;;22.00;99.90;;;;;;5032359;28;20036;-54
2023/07/10 03:02:56;;;;;;;7.60;5.18;;;21.90;99.90;;;;;;5033672;28;20394;-52
2023/07/10 03:05:22;;;;;;;13.20;6.07;;;21.90;99.90;;;;;;5033414;28;20136;-50
2023/07/10 03:07:48;;;;;;;10.10;5.32;;;21.90;99.90;;;;;;5033503;28;20032;-54
2023/07/10 03:10:14;;;;;;;15.43;6.03;;;22.00;99.90;;;;;;5034881;28;20026;-49
2023/07/10 03:12:39;;;;;;;11.73;5.45;;;22.00;99.90;;;;;;5034704;28;20026;-50
2023/07/10 03:15:06;;;;;;;10.18;5.20;;;22.10;99.90;;;;;;5034250;28;20029;-49
2023/07/10 03:17:32;;;;;;;8.10;5.57;;;22.10;99.90;;;;;;5033778;28;20033;-50
2023/07/10 03:19:58;;;;;;;12.10;6.40;;;22.10;99.90;;;;;;5033820;28;20034;-51
2023/07/10 03:22:23;;;;;;;11.68;5.40;;;22.10;99.90;;;;;;5033331;28;20388;-52
2023/07/10 03:24:52;;;;;;;10.40;5.68;;;22.10;99.90;;;;;;5034832;28;20032;-49
2023/07/10 03:27:17;;;;;;;7.50;5.80;;;22.10;99.90;;;;;;5033549;28;20075;-52
2023/07/10 03:29:43;;;;;;;7.65;6.57;;;22.10;99.90;;;;;;5034896;28;20029;-54
2023/07/10 03:32:08;;;;;;;11.85;6.32;;;21.90;99.90;;;;;;5033917;28;20108;-50
2023/07/10 03:34:34;;;;;;;12.23;6.25;;;21.90;99.90;;;;;;5032996;28;20109;-55
2023/07/10 03:37:00;;;;;;;10.57;5.50;;;21.80;99.90;;;;;;5032354;28;20037;-53
2023/07/10 03:39:25;;;;;;;10.90;5.28;;;21.80;99.90;;;;;;5032741;28;20087;-53
2023/07/10 03:41:51;;;;;;;8.35;5.43;;;21.70;99.90;;;;;;5033044;28;20101;-50
2023/07/10 03:44:16;;;;;;;9.50;5.90;;;21.80;99.90;;;;;;5031197;28;20036;-51
2023/07/10 03:46:42;;;;;;;10.00;5.80;;;21.80;99.90;;;;;;5032270;28;20117;-51
2023/07/10 03:49:07;;;;;;;5.50;4.90;;;21.80;99.90;;;;;;5032831;28;20452;-53
2023/07/10 03:51:33;;;;;;;11.18;5.20;;;21.80;99.90;;;;;;5032816;28;20033;-50
2023/07/10 03:53:58;;;;;;;10.07;4.95;;;21.90;99.90;;;;;;5032575;28;20021;-55
2023/07/10 03:56:24;;;;;;;7.70;4.90;;;21.90;99.90;;;;;;5032271;28;20349;-54
2023/07/10 03:58:49;;;;;;;10.90;5.55;;;22.00;99.90;;;;;;5032519;28;20049;-52
2023/07/10 04:01:16;;;;;;;7.93;5.72;;;21.90;99.90;;;;;;5032922;28;20044;-51
2023/07/10 04:03:43;;;;;;;14.10;5.43;;;21.90;99.90;;;;;;5032328;28;20074;-55
2023/07/10 04:06:13;;;;;;;10.35;5.10;;;21.80;99.90;;;;;;5031692;28;20029;-54
2023/07/10 04:08:40;;;;;;;7.45;5.90;;;21.80;99.90;;;;;;5032287;28;20159;-54
2023/07/10 04:11:19;;;;;;;9.07;5.53;;;21.70;99.90;;;;;;5032165;28;20021;-52
2023/07/10 04:13:46;;;;;;;12.02;6.03;;;21.70;99.90;;;;;;5032052;28;20013;-52
2023/07/10 04:16:19;;;;;;;7.85;5.95;;;21.80;99.90;;;;;;5031748;28;20099;-53
2023/07/10 04:18:46;;;;;;;10.15;5.65;;;21.80;99.90;;;;;;5032462;28;20400;-54
2023/07/10 04:21:21;;;;;;;12.18;6.07;;;21.90;99.90;;;;;;5032129;28;20112;-55
2023/07/10 04:23:46;;;;;;;8.50;6.07;;;21.80;99.90;;;;;;5031902;28;20052;-54
2023/07/10 04:26:20;;;;;;;10.23;6.50;;;21.90;99.90;;;;;;5031149;28;20038;-54
2023/07/10 04:28:48;;;;;;;10.10;6.32;;;21.90;99.90;;;;;;5031831;28;20029;-53
2023/07/10 04:31:14;;;;;;;7.53;5.65;;;21.80;99.90;;;;;;5032222;28;20026;-55
2023/07/10 04:33:40;;;;;;;10.90;5.40;;;21.80;99.90;;;;;;5031632;28;20022;-54
2023/07/10 04:36:05;;;;;;;9.38;5.85;;;21.90;99.90;;;;;;5029656;28;20437;-49
2023/07/10 04:38:31;;;;;;;7.80;5.97;;;22.00;99.90;;;;;;5029439;28;20041;-51
2023/07/10 04:40:58;;;;;;;7.75;5.97;;;22.10;99.90;;;;;;5031715;28;20029;-51
2023/07/10 04:43:25;;;;;;;9.57;6.00;;;22.20;99.90;;;;;;5031636;28;20033;-54
2023/07/10 04:45:54;;;;;;;9.00;6.95;;;22.30;99.90;;;;;;5031122;28;20025;-50
2023/07/10 04:48:19;;;;;;;15.27;7.60;;;22.30;99.90;;;;;;5031541;28;20108;-52
2023/07/10 04:50:50;;;;;;;11.57;8.90;;;22.30;99.90;;;;;;5031811;28;20540;-52
2023/07/10 04:53:16;;;;;;;15.75;11.77;;;22.30;99.90;;;;;;5031643;28;20041;-51
2023/07/10 04:55:43;;;;;;;18.45;12.88;;;22.30;99.90;;;;;;5031296;28;20452;-53
2023/07/10 04:58:08;;;;;;;10.93;8.60;;;22.30;99.90;;;;;;5032742;28;20486;-57
2023/07/10 05:00:34;;;;;;;17.17;9.07;;;22.60;99.90;;;;;;5031324;28;20044;-54
2023/07/10 05:03:00;;;;;;;10.40;7.78;;;22.70;99.90;;;;;;5030130;28;20037;-54
2023/07/10 05:05:25;;;;;;;12.48;8.65;;;23.10;99.90;;;;;;5031454;28;20025;-53
2023/07/10 05:07:51;;;;;;;12.40;8.90;;;23.40;99.90;;;;;;5030981;28;20416;-56
2023/07/10 05:10:16;;;;;;;8.73;7.78;;;23.80;99.90;;;;;;5031368;28;20026;-52
2023/07/10 05:12:42;;;;;;;11.60;8.10;;;24.30;99.90;;;;;;5031344;28;20029;-52
2023/07/10 05:15:08;;;;;;;15.93;8.40;;;24.60;99.90;;;;;;5031141;28;20041;-52
2023/07/10 05:17:33;;;;;;;14.00;9.05;;;24.80;99.90;;;;;;5030616;28;20108;-55
2023/07/10 05:19:59;;;;;;;13.35;10.93;;;25.20;99.90;;;;;;5031563;28;20452;-52
2023/07/10 05:22:24;;;;;;;16.92;11.15;;;25.60;99.90;;;;;;5031506;28;20428;-55
2023/07/10 05:24:50;;;;;;;17.33;11.88;;;25.70;99.90;;;;;;5030024;28;20029;-54
2023/07/10 05:27:15;;;;;;;16.38;12.75;;;26.00;99.90;;;;;;5031248;28;20025;-53
2023/07/10 05:29:41;;;;;;;12.95;11.65;;;26.10;99.90;;;;;;5031669;28;20021;-55
2023/07/10 05:32:07;;;;;;;18.60;11.35;;;26.40;99.90;;;;;;5031273;28;20096;-52
2023/07/10 05:34:32;;;;;;;19.85;14.00;;;26.40;99.90;;;;;;5031112;28;20444;-55
2023/07/10 05:36:58;;;;;;;18.83;14.38;;;26.50;99.90;;;;;;5030810;28;20031;-55
2023/07/10 05:39:23;;;;;;;15.93;12.95;;;26.60;99.90;;;;;;5030024;28;20022;-53
2023/07/10 05:41:49;;;;;;;20.08;14.32;;;26.80;99.90;;;;;;5031244;28;20061;-54
2023/07/10 05:44:14;;;;;;;16.35;13.95;;;26.90;99.90;;;;;;5031001;28;20034;-50
2023/07/10 05:46:40;;;;;;;17.25;14.00;;;27.10;99.90;;;;;;5030483;28;20033;-55
2023/07/10 05:49:06;;;;;;;17.35;14.15;;;27.30;99.90;;;;;;5032483;28;20405;-55
2023/07/10 05:51:31;;;;;;;17.58;14.70;;;27.70;99.90;;;;;;5034933;28;20025;-55
2023/07/10 05:53:57;;;;;;;21.55;15.50;;;28.00;99.90;;;;;;5034825;28;20388;-52
2023/07/10 05:56:23;;;;;;;24.58;15.82;;;28.30;99.90;;;;;;5033968;28;20021;-56
2023/07/10 05:58:50;;;;;;;19.52;15.82;;;28.60;99.90;;;;;;5034854;28;20520;-53
2023/07/10 06:01:15;;;;;;;21.63;15.13;;;28.70;99.90;;;;;;5034706;28;20485;-54
2023/07/10 06:03:41;;;;;;;19.23;15.90;;;28.80;99.90;;;;;;5034419;28;20083;-54
2023/07/10 06:06:07;;;;;;;20.70;16.23;;;28.70;99.90;;;;;;5033925;28;20112;-56
2023/07/10 06:08:34;;;;;;;16.92;15.02;;;28.50;99.90;;;;;;5034436;28;20079;-52
2023/07/10 06:11:00;;;;;;;19.02;15.07;;;28.60;99.90;;;;;;5034368;28;20022;-54
2023/07/10 06:13:25;;;;;;;19.67;15.50;;;28.60;99.90;;;;;;5034552;28;20363;-54
2023/07/10 06:15:54;;;;;;;23.95;17.48;;;28.70;99.90;;;;;;5055473;22;20124;-51
2023/07/10 06:18:21;;;;;;;23.40;18.15;;;29.00;99.90;;;;;;5034298;28;20103;-46
2023/07/10 06:20:57;;;;;;;18.50;15.70;;;29.40;99.90;;;;;;5034288;28;20034;-52
2023/07/10 06:23:24;;;;;;;17.98;15.68;;;29.60;99.90;;;;;;5034160;28;20033;-51
2023/07/10 06:25:51;;;;;;;21.77;16.83;;;29.80;99.90;;;;;;5032211;28;20040;-48
2023/07/10 06:28:17;;;;;;;18.23;16.30;;;29.90;99.90;;;;;;5034248;28;20033;-47
2023/07/10 06:30:46;;;;;;;18.75;16.60;;;30.10;99.90;;;;;;5034200;28;20024;-48
2023/07/10 06:33:11;;;;;;;20.73;16.65;;;30.20;99.90;;;;;;5032820;28;20034;-49
2023/07/10 06:35:37;;;;;;;17.00;15.20;;;30.40;99.90;;;;;;5033551;28;20034;-49
2023/07/10 06:38:02;;;;;;;16.65;14.40;;;30.50;99.90;;;;;;5031437;28;20516;-46
2023/07/10 06:40:28;;;;;;;21.80;16.45;;;30.30;99.90;;;;;;5034032;28;20552;-50
2023/07/10 06:42:53;;;;;;;18.10;14.75;;;30.40;99.90;;;;;;5034016;28;20033;-48
2023/07/10 06:45:19;;;;;;;21.52;16.45;;;30.60;99.80;;;;;;5033526;28;20033;-51
2023/07/10 06:47:45;;;;;;;18.73;16.77;;;30.80;99.20;;;;;;5033093;28;20485;-47
2023/07/10 06:50:13;;;;;;;17.52;15.13;;;31.20;98.70;;;;;;5033646;28;20049;-50
2023/07/10 06:52:41;;;;;;;17.08;15.35;;;31.40;98.40;;;;;;5033702;28;20448;-48
2023/07/10 06:55:09;;;;;;;16.50;14.80;;;31.40;98.20;;;;;;5033624;28;20029;-49
2023/07/10 06:57:35;;;;;;;16.23;13.27;;;31.60;97.90;;;;;;5032914;28;20493;-48
2023/07/10 07:00:01;;;;;;;21.15;16.38;;;32.00;97.50;;;;;;5032703;28;20081;-50
2023/07/10 07:02:26;;;;;;;18.60;15.25;;;31.80;97.20;;;;;;5033352;28;20036;-48
2023/07/10 07:04:52;;;;;;;19.50;16.35;;;31.40;97.50;;;;;;5033229;28;20037;-48
2023/07/10 07:07:17;;;;;;;20.63;17.00;;;31.10;98.00;;;;;;5032761;28;20052;-49
2023/07/10 07:09:43;;;;;;;16.77;14.02;;;31.10;97.90;;;;;;5033338;28;20048;-47
2023/07/10 07:12:10;;;;;;;18.35;16.30;;;31.20;97.90;;;;;;5033379;28;20500;-48
2023/07/10 07:14:35;;;;;;;21.08;16.65;;;31.50;97.60;;;;;;5033117;28;20035;-49
2023/07/10 07:17:01;;;;;;;18.95;16.98;;;31.90;96.80;;;;;;5032663;28;20339;-49
2023/07/10 07:19:26;;;;;;;19.10;16.98;;;32.40;96.20;;;;;;5033063;28;20040;-45
2023/07/10 07:21:52;;;;;;;17.70;12.98;;;32.50;95.60;;;;;;5031799;28;20025;-48
2023/07/10 07:24:17;;;;;;;17.02;14.30;;;32.70;95.60;;;;;;5032992;28;20572;-47
2023/07/10 07:26:43;;;;;;;16.63;14.95;;;33.00;94.90;;;;;;5032447;28;20079;-48
2023/07/10 07:29:08;;;;;;;16.83;14.38;;;33.40;94.50;;;;;;5032925;28;20029;-49
2023/07/10 07:31:34;;;;;;;20.23;15.70;;;33.50;94.40;;;;;;5033009;28;20033;-47
2023/07/10 07:33:59;;;;;;;17.15;15.40;;;33.70;94.10;;;;;;5032837;28;20193;-46
2023/07/10 07:36:25;;;;;;;15.70;14.00;;;33.80;93.60;;;;;;5032451;28;20096;-48
2023/07/10 07:38:50;;;;;;;17.27;15.48;;;33.80;93.50;;;;;;5030586;28;20064;-49
2023/07/10 07:41:16;;;;;;;16.83;14.65;;;34.00;93.10;;;;;;5032730;28;20040;-46
2023/07/10 07:43:41;;;;;;;17.35;15.52;;;33.30;93.70;;;;;;5032733;28;20032;-47
2023/07/10 07:46:07;;;;;;;16.80;15.02;;;33.20;93.30;;;;;;5031921;28;20558;-51
2023/07/10 07:48:32;;;;;;;16.88;14.70;;;33.40;93.70;;;;;;5031329;28;20109;-49
2023/07/10 07:51:07;;;;;;;17.38;15.38;;;33.70;93.00;;;;;;5032823;28;20025;-47
2023/07/10 07:53:35;;;;;;;17.10;15.30;;;33.40;93.10;;;;;;5032539;28;20018;-49
2023/07/10 07:56:01;;;;;;;16.95;13.30;;;33.60;92.80;;;;;;5031740;28;20021;-47
2023/07/10 07:58:28;;;;;;;15.98;14.15;;;33.90;92.80;;;;;;5032455;28;20261;-46
2023/07/10 08:00:54;;;;;;;22.15;15.43;;;34.30;92.00;;;;;;5032392;28;20028;-51
2023/07/10 08:03:20;;;;;;;15.13;13.63;;;34.40;91.80;;;;;;5032614;28;20033;-50
2023/07/10 08:05:46;;;;;;;13.45;12.15;;;34.40;92.00;;;;;;5031865;28;20037;-48
2023/07/10 08:08:11;;;;;;;13.70;11.52;;;33.80;92.10;;;;;;5030695;28;20548;-50
2023/07/10 08:10:40;;;;;;;14.75;13.23;;;34.20;92.00;;;;;;5032300;28;20041;-50
2023/07/10 08:13:08;;;;;;;13.35;11.77;;;34.30;91.90;;;;;;5031725;28;20051;-49
2023/07/10 08:15:34;;;;;;;14.93;12.18;;;33.90;92.10;;;;;;5031411;28;20044;-47
2023/07/10 08:17:59;;;;;;;14.73;11.90;;;34.10;91.50;;;;;;5031754;28;20041;-48
2023/07/10 08:20:25;;;;;;;13.65;11.35;;;33.70;91.70;;;;;;5032162;28;20067;-47
2023/07/10 08:22:50;;;;;;;14.35;11.93;;;33.70;91.90;;;;;;5032040;28;20029;-47
2023/07/10 08:25:16;;;;;;;12.73;11.52;;;34.00;91.60;;;;;;5031895;28;20025;-46
2023/07/10 08:27:43;;;;;;;15.43;11.55;;;33.80;91.70;;;;;;5031283;28;20029;-49
2023/07/10 08:30:10;;;;;;;18.48;11.52;;;34.00;91.70;;;;;;5032220;28;20013;-47
2023/07/10 08:32:35;;;;;;;15.30;12.45;;;34.10;91.40;;;;;;5031972;28;20492;-50
2023/07/10 08:35:01;;;;;;;17.20;11.65;;;33.70;91.60;;;;;;5032052;28;20097;-50
2023/07/10 08:37:26;;;;;;;12.35;11.13;;;33.60;91.70;;;;;;5031257;28;20017;-51
2023/07/10 08:39:52;;;;;;;11.27;9.63;;;33.20;92.40;;;;;;5030826;28;20100;-46
2023/07/10 08:42:22;;;;;;;10.57;9.48;;;33.00;92.70;;;;;;5030670;28;20440;-49
2023/07/10 08:44:50;;;;;;;12.10;10.02;;;32.50;93.10;;;;;;5031551;28;20035;-48
2023/07/10 08:47:21;;;;;;;13.80;10.88;;;32.30;93.30;;;;;;5031241;28;20112;-49
2023/07/10 08:49:58;;;;;;;13.75;9.95;;;31.90;93.50;;;;;;5032138;28;20393;-47
2023/07/10 08:52:36;;;;;;;11.13;9.98;;;31.50;93.90;;;;;;5031601;28;20032;-48
2023/07/10 08:55:02;;;;;;;12.20;9.63;;;31.10;94.50;;;;;;5031696;28;20421;-51
2023/07/10 08:57:34;;;;;;;12.30;9.40;;;30.60;95.10;;;;;;5031281;28;20025;-50
2023/07/10 09:00:07;;;;;;;13.23;9.20;;;30.40;95.50;;;;;;5031826;28;20109;-47
2023/07/10 09:02:49;;;;;;;11.50;9.63;;;30.10;96.40;;;;;;5031603;28;20018;-48
2023/07/10 09:05:21;;;;;;;12.05;9.13;;;30.30;96.10;;;;;;5031703;28;20028;-50
2023/07/10 09:07:48;;;;;;;11.10;9.18;;;30.30;96.10;;;;;;5030597;28;20464;-50
2023/07/10 09:10:42;;;;;;;11.82;8.77;;;30.60;96.30;;;;;;5031357;28;20022;-50
2023/07/10 09:13:14;;;;;;;12.07;8.77;;;30.60;96.10;;;;;;5020522;28;20041;-49
2023/07/10 09:15:55;;;;;;;10.73;8.45;;;30.60;96.20;;;;;;5030809;28;20033;-50
2023/07/10 09:18:32;;;;;;;12.90;7.90;;;31.00;95.90;;;;;;5031447;28;20029;-50
2023/07/10 09:21:00;;;;;;;12.00;8.90;;;31.40;95.40;;;;;;5031405;28;20036;-47
2023/07/10 09:23:29;;;;;;;11.80;8.57;;;31.30;95.10;;;;;;5031593;28;20060;-44
2023/07/10 09:25:58;;;;;;;12.48;7.88;;;31.10;95.20;;;;;;5034658;28;20377;-48
2023/07/10 09:28:25;;;;;;;9.82;8.80;;;31.20;95.40;;;;;;5035473;28;20029;-47
2023/07/10 09:30:54;;;;;;;12.32;7.20;;;30.90;95.60;;;;;;5034029;28;20105;-49
2023/07/10 09:33:20;;;;;;;11.82;8.07;;;31.10;95.30;;;;;;5035447;28;20473;-46
2023/07/10 09:35:47;;;;;;;9.25;7.70;;;30.90;95.20;;;;;;5033718;28;20079;-46
2023/07/10 09:38:15;;;;;;;8.38;7.30;;;30.90;95.90;;;;;;5033581;28;20025;-51
2023/07/10 09:40:50;;;;;;;8.75;7.85;;;30.50;96.20;;;;;;5035030;28;20022;-51
2023/07/10 09:43:23;;;;;;;11.38;8.15;;;30.30;96.70;;;;;;5035023;28;20511;-48
2023/07/10 09:45:51;;;;;;;10.90;7.88;;;30.10;96.80;;;;;;5034448;28;20029;-49
2023/07/10 09:48:35;;;;;;;10.43;7.35;;;30.00;97.20;;;;;;5034836;28;20083;-50
2023/07/10 09:51:03;;;;;;;9.75;7.15;;;29.80;96.80;;;;;;5035019;28;20025;-47
2023/07/10 09:53:30;;;;;;;9.63;7.15;;;29.70;97.20;;;;;;5034794;28;20456;-48
2023/07/10 09:55:56;;;;;;;14.38;7.05;;;29.90;96.90;;;;;;5034129;28;20432;-44
2023/07/10 09:58:22;;;;;;;13.45;7.38;;;29.90;97.20;;;;;;5034756;28;20033;-49
2023/07/10 10:00:48;;;;;;;10.18;7.25;;;29.70;96.90;;;;;;5034532;28;20088;-52
2023/07/10 10:03:31;;;;;;;10.07;6.93;;;29.60;97.10;;;;;;5034620;28;20022;-47
2023/07/10 10:05:58;;;;;;;8.05;6.18;;;29.40;97.50;;;;;;5033876;28;20036;-50
2023/07/10 10:08:45;;;;;;;10.30;7.30;;;29.50;97.60;;;;;;5034484;28;20029;-48
2023/07/10 10:11:14;;;;;;;6.88;5.95;;;29.50;97.20;;;;;;5034432;28;20053;-46
2023/07/10 10:13:41;;;;;;;8.63;6.50;;;29.60;97.10;;;;;;5034377;28;20454;-50
2023/07/10 10:16:21;;;;;;;10.90;6.38;;;29.70;97.10;;;;;;5032293;28;20038;-47
2023/07/10 10:19:34;;;;;;;8.40;7.22;;;29.60;97.00;;;;;;5034368;28;20091;-49
2023/07/10 10:22:00;;;;;;;10.10;5.82;;;29.40;97.20;;;;;;4973168;28;20265;-47
2023/07/10 10:24:29;;;;;;;8.02;6.40;;;29.50;97.10;;;;;;4973296;28;20416;-45
2023/07/10 10:27:22;;;;;;;7.38;5.70;;;29.60;96.90;;;;;;5002223;28;20076;-49
2023/07/10 10:30:02;;;;;;;11.25;6.20;;;29.80;96.60;;;;;;5034275;28;20501;-46
2023/07/10 10:32:59;;;;;;;9.75;6.68;;;30.10;96.40;;;;;;5034105;28;20033;-47
2023/07/10 10:35:47;;;;;;;9.38;5.57;;;30.10;96.20;;;;;;5033707;28;20470;-49
2023/07/10 10:38:40;;;;;;;9.48;6.18;;;30.30;96.20;;;;;;5032735;28;20028;-49
2023/07/10 10:41:18;;;;;;;7.45;6.20;;;30.10;95.70;;;;;;5033946;28;20075;-45
2023/07/10 10:43:48;;;;;;;12.70;5.93;;;29.90;95.90;;;;;;5033751;28;20032;-50
2023/07/10 10:46:23;;;;;;;10.27;5.90;;;29.70;96.20;;;;;;5033185;28;20022;-49
2023/07/10 10:49:23;;;;;;;8.13;6.60;;;29.50;96.50;;;;;;5033581;28;20033;-46
2023/07/10 10:52:13;;;;;;;8.20;6.75;;;29.30;96.70;;;;;;5020420;28;20068;-48
2023/07/10 10:54:54;;;;;;;13.43;5.95;;;29.10;97.20;;;;;;5032259;28;20504;-47
2023/07/10 10:57:24;;;;;;;8.52;6.57;;;29.00;96.90;;;;;;5032922;28;20425;-48
2023/07/10 11:00:08;;;;;;;7.32;5.60;;;28.90;97.00;;;;;;5033553;28;20033;-50
2023/07/10 11:03:07;;;;;;;6.18;5.07;;;29.10;96.90;;;;;;5033589;28;20482;-50
2023/07/10 11:05:40;;;;;;;10.77;5.40;;;29.00;96.90;;;;;;5033119;28;20405;-46
2023/07/10 11:08:22;;;;;;;9.30;5.60;;;29.40;96.70;;;;;;5033168;28;20030;-48
2023/07/10 11:10:49;;;;;;;9.70;6.80;;;29.50;96.30;;;;;;5033566;28;20052;-45
2023/07/10 11:13:36;;;;;;;8.68;5.88;;;29.60;96.10;;;;;;5031942;28;20018;-48
2023/07/10 11:16:04;;;;;;;6.20;5.60;;;29.60;95.80;;;;;;5032494;28;20033;-47
2023/07/10 11:18:30;;;;;;;8.68;5.13;;;29.50;95.80;;;;;;5032025;28;20102;-48
2023/07/10 11:20:57;;;;;;;6.63;4.93;;;29.40;96.20;;;;;;5033122;28;20076;-48
2023/07/10 11:23:41;;;;;;;10.18;5.47;;;29.50;95.70;;;;;;5033168;28;20035;-51
2023/07/10 11:26:17;;;;;;;9.43;5.78;;;29.60;95.90;;;;;;5032335;28;20116;-48
2023/07/10 11:28:49;;;;;;;7.20;5.22;;;29.70;95.70;;;;;;5033083;28;20053;-49
2023/07/10 11:31:32;;;;;;;5.43;4.93;;;29.60;95.10;;;;;;5033090;28;20021;-48
2023/07/10 11:34:06;;;;;;;5.63;5.13;;;29.50;94.90;;;;;;5032706;28;20116;-49
2023/07/10 11:36:45;;;;;;;7.53;5.68;;;29.60;95.50;;;;;;5032158;28;20389;-49
2023/07/10 11:39:29;;;;;;;8.68;4.68;;;29.70;94.50;;;;;;5031897;28;20037;-47
2023/07/10 11:41:55;;;;;;;5.05;4.55;;;29.80;94.20;;;;;;5032940;28;20026;-50
2023/07/10 11:44:41;;;;;;;5.60;5.03;;;29.80;95.00;;;;;;5032327;28;20079;-47
2023/07/10 11:47:10;;;;;;;6.88;5.47;;;29.70;95.00;;;;;;5030256;28;20449;-48
2023/07/10 11:49:35;;;;;;;5.90;4.65;;;29.60;94.80;;;;;;5032722;28;20493;-48
2023/07/10 11:52:15;;;;;;;6.78;4.68;;;29.50;94.10;;;;;;5032795;28;20296;-47
2023/07/10 11:54:47;;;;;;;10.80;5.07;;;29.70;94.40;;;;;;5032408;28;20045;-52
2023/07/10 11:57:23;;;;;;;9.30;4.57;;;29.80;94.70;;;;;;5031941;28;20025;-51
2023/07/10 12:00:00;;;;;;;7.18;5.28;;;29.80;94.00;;;;;;5032595;28;20025;-52
2023/07/10 12:02:49;;;;;;;6.57;4.60;;;29.80;94.00;;;;;;5032737;28;20022;-51
2023/07/10 12:05:20;;;;;;;6.60;4.60;;;29.80;94.10;;;;;;5032369;28;20032;-52
2023/07/10 12:07:54;;;;;;;7.32;5.10;;;29.60;93.80;;;;;;5031713;28;20485;-51
2023/07/10 12:10:21;;;;;;;7.78;4.18;;;29.60;94.00;;;;;;5031115;28;20030;-48
2023/07/10 12:12:48;;;;;;;5.20;4.50;;;29.60;94.20;;;;;;5030968;28;20029;-47
2023/07/10 12:15:13;;;;;;;6.20;4.75;;;29.60;94.10;;;;;;5032478;28;20515;-50
2023/07/10 12:17:40;;;;;;;5.38;4.32;;;29.60;94.00;;;;;;5031391;28;20053;-50
2023/07/10 12:20:31;;;;;;;5.93;4.70;;;29.60;93.50;;;;;;5032201;28;20021;-51
2023/07/10 12:23:06;;;;;;;6.88;4.70;;;29.60;93.20;;;;;;5032088;28;20032;-47
2023/07/10 12:25:32;;;;;;;6.43;4.25;;;29.60;93.10;;;;;;5031881;28;20021;-51
2023/07/10 12:28:12;;;;;;;5.93;4.38;;;29.70;93.10;;;;;;5032099;28;20032;-47
2023/07/10 12:30:39;;;;;;;5.85;4.50;;;29.70;92.80;;;;;;5032506;28;20405;-48
2023/07/10 12:33:32;;;;;;;6.82;4.53;;;29.90;92.70;;;;;;5031948;28;20021;-49
2023/07/10 12:36:13;;;;;;;5.47;4.50;;;30.00;92.50;;;;;;5031301;28;20450;-48
2023/07/10 12:38:39;;;;;;;5.05;4.13;;;30.10;92.40;;;;;;5029556;28;20026;-48
2023/07/10 12:41:06;;;;;;;4.78;3.90;;;30.20;92.00;;;;;;5030589;28;20029;-50
2023/07/10 12:43:32;;;;;;;7.50;3.60;;;30.30;90.80;;;;;;5031763;28;20026;-50
2023/07/10 12:46:11;;;;;;;3.72;3.40;;;30.30;90.10;;;;;;5029746;28;20033;-50
2023/07/10 12:48:36;;;;;;;12.65;4.68;;;30.30;90.20;;;;;;5031810;28;20512;-50
2023/07/10 12:51:04;;;;;;;9.63;6.05;;;30.40;90.40;;;;;;5031780;28;20061;-51
2023/07/10 12:53:34;;;;;;;8.88;5.78;;;30.40;90.70;;;;;;5031710;28;20030;-51